Time;durP1;ratioP1;P1;durP2;ratioP2;P2;SDS_P1;SDS_P2;PMS_P1;PMS_P2;Temp;Humidity;BMP_temperature;BMP_pressure;BME280_temperature;BME280_humidity;BME280_pressure;Samples;Min_cycle;Max_cycle;Signal;HPM_P1;HPM_P2
2022/02/17 00:00:27;;;;;;;12.48;2.70;;;11.80;91.00;;;;;;5054420;28;20025;-40
2022/02/17 00:02:53;;;;;;;11.60;2.60;;;11.80;91.00;;;;;;5056020;28;20354;-42
2022/02/17 00:05:21;;;;;;;10.55;2.53;;;11.80;91.00;;;;;;5055502;28;20025;-41
2022/02/17 00:07:48;;;;;;;12.60;3.15;;;11.80;91.10;;;;;;5055416;28;20065;-41
2022/02/17 00:10:15;;;;;;;19.70;3.33;;;11.80;91.10;;;;;;5055781;28;20378;-41
2022/02/17 00:12:41;;;;;;;18.30;3.42;;;11.80;91.20;;;;;;5055301;28;20032;-42
2022/02/17 00:15:07;;;;;;;16.98;3.17;;;11.80;91.20;;;;;;5055373;28;20025;-41
2022/02/17 00:17:33;;;;;;;13.13;3.20;;;11.80;91.10;;;;;;5055701;28;20025;-42
2022/02/17 00:19:59;;;;;;;14.05;3.08;;;11.80;91.00;;;;;;5055343;28;20028;-42
2022/02/17 00:22:24;;;;;;;13.18;2.50;;;11.80;91.00;;;;;;5054527;28;20071;-41
2022/02/17 00:24:50;;;;;;;9.82;2.70;;;11.80;90.80;;;;;;5055412;28;20032;-42
2022/02/17 00:27:16;;;;;;;13.65;3.28;;;11.80;90.70;;;;;;5053954;28;20020;-42
2022/02/17 00:29:42;;;;;;;14.57;3.25;;;11.90;90.70;;;;;;5054976;28;20029;-42
2022/02/17 00:32:08;;;;;;;9.98;3.00;;;11.80;90.60;;;;;;5055027;28;20017;-42
2022/02/17 00:34:34;;;;;;;12.20;2.90;;;11.80;90.40;;;;;;5054981;28;20028;-42
2022/02/17 00:37:01;;;;;;;10.93;2.75;;;11.90;90.50;;;;;;5055354;28;20104;-43
2022/02/17 00:39:27;;;;;;;11.93;2.90;;;11.90;90.20;;;;;;5054847;28;20021;-42
2022/02/17 00:41:52;;;;;;;13.13;3.30;;;11.90;90.20;;;;;;5054962;28;20512;-42
2022/02/17 00:44:18;;;;;;;12.60;2.70;;;11.90;89.80;;;;;;5054823;28;20053;-40
2022/02/17 00:46:43;;;;;;;12.13;2.65;;;11.80;89.40;;;;;;5055258;28;20028;-41
2022/02/17 00:49:09;;;;;;;11.70;2.50;;;11.80;89.60;;;;;;5054958;28;20021;-43
2022/02/17 00:51:35;;;;;;;10.70;3.00;;;11.80;89.50;;;;;;5054922;28;20426;-42
2022/02/17 00:54:01;;;;;;;9.32;2.80;;;11.70;89.40;;;;;;5054919;28;20103;-42
2022/02/17 00:56:26;;;;;;;13.43;3.03;;;11.70;89.00;;;;;;5054691;28;20028;-42
2022/02/17 00:58:52;;;;;;;8.73;2.30;;;11.70;88.90;;;;;;5054610;28;20491;-42
2022/02/17 01:01:18;;;;;;;8.63;2.10;;;11.70;89.10;;;;;;5054556;28;20052;-42
2022/02/17 01:03:43;;;;;;;8.85;3.00;;;11.70;89.30;;;;;;5054771;28;20116;-44
2022/02/17 01:06:10;;;;;;;13.80;2.88;;;11.70;89.00;;;;;;5054451;28;20101;-44
2022/02/17 01:08:35;;;;;;;13.15;3.00;;;11.70;89.10;;;;;;5054551;28;20025;-44
2022/02/17 01:11:01;;;;;;;15.07;3.63;;;11.70;89.20;;;;;;5054745;28;20499;-41
2022/02/17 01:13:27;;;;;;;11.45;2.95;;;11.60;89.90;;;;;;5054748;28;20354;-43
2022/02/17 01:15:53;;;;;;;14.77;3.47;;;11.50;90.10;;;;;;5054511;28;20465;-45
2022/02/17 01:18:19;;;;;;;12.02;3.33;;;11.40;90.40;;;;;;5054249;28;20074;-53
2022/02/17 01:20:46;;;;;;;12.07;3.20;;;11.30;90.30;;;;;;5054320;28;20064;-45
2022/02/17 01:23:12;;;;;;;12.15;2.80;;;11.20;90.30;;;;;;5054617;28;20477;-45
2022/02/17 01:25:38;;;;;;;8.45;2.33;;;11.10;89.60;;;;;;5054209;28;20040;-45
2022/02/17 01:28:04;;;;;;;11.90;2.88;;;11.00;89.10;;;;;;5054147;28;20028;-44
2022/02/17 01:30:29;;;;;;;10.88;2.33;;;10.90;87.70;;;;;;5054048;28;20024;-44
2022/02/17 01:32:55;;;;;;;8.45;1.90;;;10.70;87.00;;;;;;5054125;28;20021;-46
2022/02/17 01:35:20;;;;;;;12.70;2.42;;;10.60;86.50;;;;;;5053055;28;20025;-43
2022/02/17 01:37:46;;;;;;;13.10;2.67;;;10.50;86.60;;;;;;5053911;28;20025;-44
2022/02/17 01:40:13;;;;;;;8.02;1.80;;;10.40;86.40;;;;;;5054154;28;20531;-45
2022/02/17 01:42:39;;;;;;;11.13;2.38;;;10.40;86.40;;;;;;5052295;28;20580;-43
2022/02/17 01:45:09;;;;;;;13.43;2.90;;;10.30;86.40;;;;;;5052383;28;20044;-44
2022/02/17 01:47:35;;;;;;;12.90;2.72;;;10.30;86.40;;;;;;5053884;28;20025;-45
2022/02/17 01:50:01;;;;;;;14.38;2.92;;;10.30;86.00;;;;;;5052145;28;20036;-44
2022/02/17 01:52:26;;;;;;;10.55;2.40;;;10.40;86.30;;;;;;5053521;28;20492;-45
2022/02/17 01:54:52;;;;;;;10.73;2.85;;;10.40;86.40;;;;;;5053459;28;20106;-45
2022/02/17 01:57:27;;;;;;;16.73;3.30;;;10.40;85.90;;;;;;5053483;28;20528;-44
2022/02/17 01:59:53;;;;;;;16.55;3.60;;;10.50;85.90;;;;;;5053599;28;20086;-45
2022/02/17 02:02:19;;;;;;;15.55;3.25;;;10.50;86.10;;;;;;5053404;28;20100;-43
2022/02/17 02:04:44;;;;;;;16.35;3.40;;;10.60;86.20;;;;;;5053292;28;20024;-45
2022/02/17 02:07:10;;;;;;;15.65;3.88;;;10.60;86.20;;;;;;5053259;28;20029;-46
2022/02/17 02:09:36;;;;;;;16.08;3.05;;;10.60;86.10;;;;;;5053166;28;20025;-45
2022/02/17 02:12:03;;;;;;;20.38;4.35;;;10.70;86.30;;;;;;5053310;28;20024;-45
2022/02/17 02:14:29;;;;;;;14.15;3.17;;;10.70;86.30;;;;;;5053108;28;20025;-46
2022/02/17 02:16:54;;;;;;;19.63;3.75;;;10.70;86.20;;;;;;5053076;28;20496;-45
2022/02/17 02:19:21;;;;;;;19.73;4.15;;;10.80;86.60;;;;;;5053108;28;20556;-45
2022/02/17 02:21:47;;;;;;;26.33;4.85;;;10.80;86.90;;;;;;5053114;28;20025;-44
2022/02/17 02:24:12;;;;;;;26.33;4.80;;;10.80;87.10;;;;;;5051917;28;20040;-48
2022/02/17 02:26:38;;;;;;;20.70;5.30;;;10.90;87.30;;;;;;5051847;28;20017;-45
2022/02/17 02:29:03;;;;;;;24.00;4.63;;;10.90;87.10;;;;;;5053359;28;20024;-47
2022/02/17 02:31:29;;;;;;;25.23;4.78;;;10.90;87.30;;;;;;5052891;28;20032;-45
2022/02/17 02:33:55;;;;;;;27.83;5.80;;;10.90;87.10;;;;;;5052776;28;20079;-45
2022/02/17 02:36:20;;;;;;;23.08;4.60;;;10.90;87.10;;;;;;5052732;28;20014;-45
2022/02/17 02:38:46;;;;;;;27.60;5.78;;;10.90;86.70;;;;;;5052914;28;20017;-45
2022/02/17 02:41:12;;;;;;;18.02;4.55;;;10.90;86.60;;;;;;5053004;28;20021;-45
2022/02/17 02:43:38;;;;;;;17.08;4.03;;;10.90;87.10;;;;;;5052593;28;20116;-44
2022/02/17 02:46:06;;;;;;;25.73;4.68;;;10.90;85.90;;;;;;5052332;28;20025;-45
2022/02/17 02:48:31;;;;;;;19.20;4.28;;;10.90;85.20;;;;;;5052554;28;20500;-44
2022/02/17 02:50:57;;;;;;;16.83;3.92;;;10.80;83.20;;;;;;5052629;28;20102;-44
2022/02/17 02:53:23;;;;;;;21.50;4.80;;;10.80;84.00;;;;;;5052572;28;20400;-44
2022/02/17 02:55:49;;;;;;;22.35;3.58;;;10.80;83.30;;;;;;5052709;28;20025;-41
2022/02/17 02:58:16;;;;;;;20.58;3.50;;;10.80;82.90;;;;;;5052867;28;20031;-44
2022/02/17 03:00:44;;;;;;;15.73;3.25;;;10.70;81.20;;;;;;5052685;28;20565;-43
2022/02/17 03:03:10;;;;;;;17.73;3.33;;;10.80;80.90;;;;;;5052719;28;20479;-43
2022/02/17 03:05:36;;;;;;;17.00;3.10;;;10.70;79.20;;;;;;5052541;28;20029;-42
2022/02/17 03:08:02;;;;;;;16.52;3.33;;;10.70;79.50;;;;;;5052411;28;20029;-43
2022/02/17 03:10:30;;;;;;;14.00;3.20;;;10.70;78.90;;;;;;5052490;28;20444;-43
2022/02/17 03:12:57;;;;;;;16.60;3.05;;;10.70;79.10;;;;;;5052729;28;20025;-43
2022/02/17 03:15:23;;;;;;;13.93;3.13;;;10.70;79.80;;;;;;5052521;28;20103;-44
2022/02/17 03:17:49;;;;;;;17.17;3.30;;;10.70;80.30;;;;;;5052641;28;20032;-44
2022/02/17 03:20:15;;;;;;;19.15;3.80;;;10.70;80.20;;;;;;5052452;28;20020;-43
2022/02/17 03:22:41;;;;;;;16.85;4.18;;;10.70;78.30;;;;;;5052408;28;20021;-44
2022/02/17 03:25:08;;;;;;;16.13;3.85;;;10.70;77.40;;;;;;5052442;28;20063;-43
2022/02/17 03:27:34;;;;;;;22.35;3.97;;;10.60;76.90;;;;;;5052434;28;20078;-43
2022/02/17 03:30:01;;;;;;;20.85;3.58;;;10.60;74.60;;;;;;5052153;28;20032;-44
2022/02/17 03:32:27;;;;;;;18.63;4.10;;;10.60;74.00;;;;;;5052362;28;20027;-44
2022/02/17 03:34:53;;;;;;;15.90;3.67;;;10.60;73.20;;;;;;5052449;28;20484;-43
2022/02/17 03:37:19;;;;;;;20.27;3.80;;;10.60;72.70;;;;;;5052126;28;20028;-42
2022/02/17 03:39:45;;;;;;;18.63;4.07;;;10.60;72.70;;;;;;5050820;28;20021;-43
2022/02/17 03:42:10;;;;;;;22.08;3.63;;;10.60;73.20;;;;;;5051906;28;20032;-42
2022/02/17 03:44:36;;;;;;;19.50;3.30;;;10.50;72.30;;;;;;5052045;28;20029;-44
2022/02/17 03:47:02;;;;;;;18.55;3.83;;;10.50;71.90;;;;;;5052339;28;20131;-43
2022/02/17 03:49:28;;;;;;;18.75;4.30;;;10.50;71.40;;;;;;5052371;28;20037;-43
2022/02/17 03:51:53;;;;;;;15.77;3.92;;;10.40;71.80;;;;;;5052369;28;20021;-42
2022/02/17 03:54:19;;;;;;;23.52;4.53;;;10.30;72.00;;;;;;5051970;28;20021;-42
2022/02/17 03:56:44;;;;;;;17.98;3.10;;;10.30;70.30;;;;;;5052115;28;20047;-43
2022/02/17 03:59:10;;;;;;;11.13;2.63;;;10.30;71.30;;;;;;5055080;28;20040;-44
2022/02/17 04:01:37;;;;;;;20.30;4.05;;;10.20;72.00;;;;;;5055616;28;20052;-44
2022/02/17 04:04:05;;;;;;;20.55;4.38;;;10.20;71.50;;;;;;5055688;28;20128;-43
2022/02/17 04:06:31;;;;;;;17.13;3.25;;;10.20;70.80;;;;;;5055866;28;20385;-43
2022/02/17 04:08:56;;;;;;;18.05;3.78;;;10.10;71.80;;;;;;5055385;28;20043;-44
2022/02/17 04:11:23;;;;;;;18.63;4.55;;;10.10;71.00;;;;;;5055431;28;20419;-42
2022/02/17 04:13:49;;;;;;;14.43;3.60;;;10.10;71.50;;;;;;5055589;28;20124;-43
2022/02/17 04:16:16;;;;;;;15.27;3.65;;;10.10;71.80;;;;;;5055553;28;20021;-43
2022/02/17 04:18:42;;;;;;;19.30;4.78;;;10.10;72.40;;;;;;5055383;28;20458;-43
2022/02/17 04:21:08;;;;;;;17.17;3.90;;;10.10;72.90;;;;;;5055519;28;20493;-45
2022/02/17 04:23:35;;;;;;;19.50;3.35;;;10.10;72.30;;;;;;5055362;28;20370;-43
2022/02/17 04:26:01;;;;;;;22.23;4.50;;;10.10;73.40;;;;;;5055141;28;20537;-43
2022/02/17 04:28:26;;;;;;;17.75;3.75;;;10.10;72.70;;;;;;5054924;28;20116;-44
2022/02/17 04:30:52;;;;;;;14.95;3.38;;;10.00;73.00;;;;;;5055153;28;20040;-43
2022/02/17 04:33:18;;;;;;;16.83;4.22;;;10.10;73.40;;;;;;5054944;28;20021;-44
2022/02/17 04:35:43;;;;;;;16.63;3.40;;;10.10;73.50;;;;;;5055028;28;20021;-43
2022/02/17 04:38:09;;;;;;;17.05;3.58;;;10.00;73.30;;;;;;5054921;28;20062;-48
2022/02/17 04:43:19;;;;;;;22.92;4.68;;;10.10;73.60;;;;;;5054805;28;20063;-44
2022/02/17 04:45:45;;;;;;;19.42;3.60;;;10.10;73.70;;;;;;5054900;28;20104;-43
2022/02/17 04:48:10;;;;;;;18.95;3.88;;;10.20;74.20;;;;;;5054820;28;20110;-42
2022/02/17 04:50:36;;;;;;;19.05;4.45;;;10.20;74.10;;;;;;5054859;28;20075;-43
2022/02/17 04:53:02;;;;;;;16.20;3.55;;;10.20;73.90;;;;;;5054900;28;20103;-43
2022/02/17 04:55:27;;;;;;;17.88;3.65;;;10.20;73.90;;;;;;5054809;28;20384;-42
2022/02/17 04:57:53;;;;;;;22.98;4.65;;;10.20;74.10;;;;;;5054718;28;20060;-43
2022/02/17 05:00:18;;;;;;;14.80;3.75;;;10.20;74.10;;;;;;5054517;28;20017;-41
2022/02/17 05:02:44;;;;;;;20.95;3.63;;;10.20;74.00;;;;;;5054413;28;20100;-42
2022/02/17 05:05:10;;;;;;;17.42;3.85;;;10.20;74.00;;;;;;5054503;28;20039;-43
2022/02/17 05:07:35;;;;;;;17.20;3.03;;;10.20;74.60;;;;;;5054577;28;20020;-43
2022/02/17 05:10:01;;;;;;;21.30;4.50;;;10.20;73.40;;;;;;5054026;28;20488;-43
2022/02/17 05:12:26;;;;;;;26.38;4.13;;;10.20;73.90;;;;;;5054473;28;20380;-43
2022/02/17 05:14:52;;;;;;;22.20;4.13;;;10.20;74.00;;;;;;5054591;28;20066;-43
2022/02/17 05:17:17;;;;;;;19.38;4.30;;;10.20;73.40;;;;;;5054413;28;20013;-43
2022/02/17 05:19:43;;;;;;;12.50;3.38;;;10.20;73.10;;;;;;5054367;28;20028;-43
2022/02/17 05:22:09;;;;;;;22.13;4.95;;;10.20;73.50;;;;;;5054019;28;20021;-43
2022/02/17 05:24:35;;;;;;;20.38;4.13;;;10.10;76.30;;;;;;5053940;28;20065;-42
2022/02/17 05:27:00;;;;;;;16.65;2.95;;;9.80;77.30;;;;;;5052668;28;20021;-42
2022/02/17 05:29:26;;;;;;;24.77;4.68;;;9.60;78.20;;;;;;5053913;28;20473;-41
2022/02/17 05:31:51;;;;;;;25.38;4.05;;;9.40;79.60;;;;;;5053756;28;20104;-42
2022/02/17 05:34:20;;;;;;;25.00;4.63;;;9.20;80.00;;;;;;5053720;28;20116;-42
2022/02/17 05:36:46;;;;;;;35.53;5.80;;;9.20;80.30;;;;;;5054055;28;20025;-41
2022/02/17 05:39:11;;;;;;;25.80;4.45;;;9.20;80.70;;;;;;5053840;28;20013;-39
2022/02/17 05:41:38;;;;;;;21.75;4.60;;;9.10;83.80;;;;;;5053789;28;20037;-40
2022/02/17 05:44:04;;;;;;;19.20;3.65;;;8.70;84.50;;;;;;5053711;28;20073;-41
2022/02/17 05:46:30;;;;;;;21.77;3.78;;;8.50;84.70;;;;;;5053704;28;20025;-41
2022/02/17 05:48:55;;;;;;;21.33;4.78;;;8.30;84.80;;;;;;5053652;28;20035;-41
2022/02/17 05:51:21;;;;;;;16.15;3.85;;;8.20;84.90;;;;;;5053549;28;20091;-40
2022/02/17 05:53:47;;;;;;;14.60;3.28;;;8.10;85.20;;;;;;5053676;28;20017;-40
2022/02/17 05:56:13;;;;;;;23.75;3.80;;;8.10;85.10;;;;;;5053466;28;20025;-41
2022/02/17 05:58:39;;;;;;;14.98;3.08;;;8.00;85.00;;;;;;5053562;28;20051;-41
2022/02/17 06:01:05;;;;;;;15.68;3.10;;;8.00;84.90;;;;;;5053915;28;20028;-41
2022/02/17 06:03:31;;;;;;;15.00;3.63;;;8.00;85.10;;;;;;5053560;28;20389;-41
2022/02/17 06:05:57;;;;;;;21.33;4.88;;;7.90;85.20;;;;;;5053494;28;20040;-41
2022/02/17 06:08:23;;;;;;;19.33;4.05;;;7.90;85.20;;;;;;5053251;28;20509;-40
2022/02/17 06:10:49;;;;;;;18.13;3.95;;;7.90;85.30;;;;;;5053661;28;20024;-39
2022/02/17 06:13:15;;;;;;;23.40;4.13;;;7.90;85.00;;;;;;5053431;28;20526;-42
2022/02/17 06:15:41;;;;;;;13.45;2.70;;;7.90;84.70;;;;;;5051956;28;20021;-41
2022/02/17 06:18:06;;;;;;;16.67;3.55;;;7.90;84.40;;;;;;5053085;28;20021;-42
2022/02/17 06:20:33;;;;;;;16.40;3.03;;;7.90;83.50;;;;;;5052604;28;20029;-42
2022/02/17 06:22:59;;;;;;;16.75;3.22;;;8.00;83.10;;;;;;5053188;28;20013;-42
2022/02/17 06:25:25;;;;;;;17.77;3.28;;;8.00;82.50;;;;;;5053095;28;20457;-41
2022/02/17 06:27:51;;;;;;;17.88;3.00;;;8.00;81.90;;;;;;5053022;28;20027;-41
2022/02/17 06:30:20;;;;;;;18.25;3.20;;;8.10;81.70;;;;;;5052927;28;20017;-42
2022/02/17 06:32:45;;;;;;;25.65;3.90;;;8.10;82.00;;;;;;5052885;28;20058;-42
2022/02/17 06:35:11;;;;;;;17.13;3.05;;;8.10;81.60;;;;;;5052745;28;20025;-41
2022/02/17 06:37:36;;;;;;;21.55;3.88;;;8.20;81.80;;;;;;5052851;28;20025;-43
2022/02/17 06:40:03;;;;;;;18.25;3.47;;;8.20;81.30;;;;;;5052883;28;20021;-41
2022/02/17 06:42:29;;;;;;;23.13;3.67;;;8.30;81.10;;;;;;5052814;28;20501;-41
2022/02/17 06:44:54;;;;;;;21.83;3.47;;;8.20;80.40;;;;;;5052707;28;20021;-42
2022/02/17 06:47:20;;;;;;;17.20;3.67;;;8.30;79.90;;;;;;5052581;28;20029;-39
2022/02/17 06:49:46;;;;;;;8.57;2.45;;;8.30;78.10;;;;;;5052727;28;20477;-40
2022/02/17 06:52:12;;;;;;;13.52;2.47;;;8.40;78.60;;;;;;5052540;28;20017;-41
2022/02/17 06:54:37;;;;;;;11.30;2.60;;;8.40;77.00;;;;;;5052571;28;20021;-40
2022/02/17 06:57:03;;;;;;;10.27;2.65;;;8.40;75.70;;;;;;5052530;28;20096;-40
2022/02/17 06:59:29;;;;;;;10.60;2.28;;;8.40;76.10;;;;;;5052479;28;20033;-40
2022/02/17 07:01:54;;;;;;;20.95;2.80;;;8.50;75.90;;;;;;5052475;28;20495;-40
2022/02/17 07:04:20;;;;;;;13.75;2.78;;;8.50;74.50;;;;;;5052710;28;20047;-40
2022/02/17 07:06:47;;;;;;;16.58;2.53;;;8.50;74.40;;;;;;5052900;28;20451;-41
2022/02/17 07:09:13;;;;;;;11.50;2.72;;;8.60;74.20;;;;;;5052442;28;20025;-41
2022/02/17 07:11:38;;;;;;;12.60;2.20;;;8.60;73.70;;;;;;5052279;28;20029;-41
2022/02/17 07:14:04;;;;;;;12.50;1.85;;;8.60;72.70;;;;;;5052462;28;20040;-40
2022/02/17 07:16:30;;;;;;;12.35;2.35;;;8.60;72.40;;;;;;5052608;28;20029;-41
2022/02/17 07:18:55;;;;;;;15.15;2.05;;;8.60;69.60;;;;;;5052426;28;20025;-41
2022/02/17 07:21:21;;;;;;;10.15;2.00;;;8.60;69.00;;;;;;5052325;28;20032;-41
2022/02/17 07:23:46;;;;;;;13.85;2.30;;;8.60;69.00;;;;;;5052678;28;20045;-42
2022/02/17 07:26:12;;;;;;;10.65;2.10;;;8.60;69.10;;;;;;5052298;28;20060;-42
2022/02/17 07:28:38;;;;;;;9.82;2.03;;;8.60;69.10;;;;;;5052095;28;20064;-41
2022/02/17 07:31:04;;;;;;;7.43;1.83;;;8.50;68.20;;;;;;5052474;28;20473;-41
2022/02/17 07:33:29;;;;;;;5.68;2.20;;;8.50;68.50;;;;;;5052614;28;20023;-40
2022/02/17 07:35:55;;;;;;;10.25;2.40;;;8.50;69.20;;;;;;5056083;28;20079;-40
2022/02/17 07:38:21;;;;;;;8.07;1.85;;;8.40;68.30;;;;;;5056246;28;20047;-40
2022/02/17 07:40:48;;;;;;;11.70;2.30;;;8.40;68.40;;;;;;5055914;28;20041;-39
2022/02/17 07:43:14;;;;;;;10.65;2.15;;;8.40;68.10;;;;;;5055830;28;20044;-41
2022/02/17 07:45:40;;;;;;;14.30;2.53;;;8.40;68.30;;;;;;5056139;28;20493;-41
2022/02/17 07:48:06;;;;;;;6.78;1.80;;;8.40;68.30;;;;;;5055676;28;20021;-42
2022/02/17 07:50:32;;;;;;;13.25;2.17;;;8.40;69.60;;;;;;5054266;28;20393;-41
2022/02/17 07:52:58;;;;;;;12.55;2.88;;;8.50;70.50;;;;;;5055523;28;20096;-41
2022/02/17 07:58:48;;;;;;;14.95;2.50;;;8.60;72.40;;;;;;5055992;28;20439;-41
2022/02/17 08:01:15;;;;;;;14.20;3.22;;;8.60;73.50;;;;;;5055945;28;20096;-40
2022/02/17 08:03:41;;;;;;;11.32;2.65;;;8.60;73.90;;;;;;5055530;28;20025;-39
2022/02/17 08:06:10;;;;;;;14.00;2.65;;;8.70;74.30;;;;;;5055636;28;20083;-41
2022/02/17 08:08:35;;;;;;;9.77;2.30;;;8.70;74.80;;;;;;5055257;28;20029;-41
2022/02/17 08:11:01;;;;;;;12.43;2.97;;;8.70;75.00;;;;;;5055571;28;20031;-40
2022/02/17 08:13:27;;;;;;;9.85;2.67;;;8.80;74.00;;;;;;5055766;28;20439;-40
2022/02/17 08:15:54;;;;;;;9.52;1.90;;;8.80;73.80;;;;;;5055225;28;20025;-41
2022/02/17 08:18:20;;;;;;;10.48;2.63;;;8.80;73.90;;;;;;5055599;28;20216;-41
2022/02/17 08:20:46;;;;;;;9.25;2.35;;;8.80;73.40;;;;;;5055223;28;20555;-41
2022/02/17 08:23:12;;;;;;;10.90;2.30;;;8.80;73.30;;;;;;5055378;28;20033;-41
2022/02/17 08:25:40;;;;;;;10.70;1.85;;;8.90;73.40;;;;;;5055181;28;20047;-41
2022/02/17 08:28:05;;;;;;;12.20;2.78;;;8.80;72.80;;;;;;5055268;28;20389;-41
2022/02/17 08:30:35;;;;;;;11.48;2.58;;;8.90;72.30;;;;;;5055052;28;20021;-41
2022/02/17 08:33:01;;;;;;;7.55;1.90;;;8.90;72.00;;;;;;5054816;28;20071;-41
2022/02/17 08:35:28;;;;;;;10.00;2.25;;;8.90;71.70;;;;;;5055016;28;20468;-41
2022/02/17 08:37:56;;;;;;;7.93;2.42;;;8.90;70.40;;;;;;5054986;28;20098;-41
2022/02/17 08:40:23;;;;;;;10.38;1.75;;;9.00;70.60;;;;;;5055093;28;20021;-41
2022/02/17 08:42:49;;;;;;;13.75;2.28;;;9.00;69.80;;;;;;5054568;28;20131;-41
2022/02/17 08:45:15;;;;;;;9.43;1.92;;;9.10;69.90;;;;;;5054529;28;20016;-40
2022/02/17 08:47:40;;;;;;;12.50;2.33;;;9.10;69.20;;;;;;5054849;28;20021;-40
2022/02/17 08:50:09;;;;;;;10.70;2.05;;;9.10;67.90;;;;;;5054557;28;20473;-41
2022/02/17 08:52:38;;;;;;;11.50;2.53;;;9.20;68.90;;;;;;5054842;28;20472;-41
2022/02/17 08:55:06;;;;;;;13.55;2.72;;;9.20;68.90;;;;;;5054769;28;20492;-40
2022/02/17 08:57:32;;;;;;;11.60;2.10;;;9.20;68.00;;;;;;5054538;28;20064;-39
2022/02/17 08:59:58;;;;;;;12.38;2.47;;;9.20;68.50;;;;;;5054656;28;20048;-40
2022/02/17 09:02:24;;;;;;;10.93;2.25;;;9.30;69.20;;;;;;5054383;28;20025;-41
2022/02/17 09:04:49;;;;;;;11.70;2.47;;;9.30;66.80;;;;;;5054295;28;20416;-40
2022/02/17 09:07:15;;;;;;;6.10;1.73;;;9.30;67.30;;;;;;5052962;28;20056;-41
2022/02/17 09:09:44;;;;;;;15.80;3.53;;;9.40;67.40;;;;;;5054357;28;20021;-40
2022/02/17 09:12:10;;;;;;;10.80;2.20;;;9.40;65.20;;;;;;5054364;28;20021;-41
2022/02/17 09:14:35;;;;;;;11.65;2.00;;;9.40;65.00;;;;;;5054274;28;20025;-41
2022/02/17 09:17:01;;;;;;;14.00;2.22;;;9.40;65.10;;;;;;5054320;28;20017;-40
2022/02/17 09:19:26;;;;;;;7.13;1.77;;;9.40;65.80;;;;;;5054381;28;20139;-42
2022/02/17 09:21:52;;;;;;;10.85;2.10;;;9.40;65.00;;;;;;5054391;28;20027;-41
2022/02/17 09:24:18;;;;;;;6.22;1.75;;;9.40;64.10;;;;;;5054185;28;20028;-39
2022/02/17 09:26:45;;;;;;;7.68;1.88;;;9.40;64.90;;;;;;5053975;28;20021;-41
2022/02/17 09:29:11;;;;;;;10.32;2.03;;;9.40;65.50;;;;;;5053115;28;20021;-39
2022/02/17 09:31:37;;;;;;;6.43;1.95;;;9.40;65.80;;;;;;5054004;28;20100;-44
2022/02/17 09:34:02;;;;;;;10.65;1.90;;;9.50;66.00;;;;;;5053818;28;20075;-41
2022/02/17 09:36:28;;;;;;;7.38;1.70;;;9.50;65.90;;;;;;5053925;28;20028;-40
2022/02/17 09:38:56;;;;;;;7.85;1.88;;;9.50;65.10;;;;;;5054207;28;20377;-40
2022/02/17 09:41:22;;;;;;;6.32;1.70;;;9.60;64.50;;;;;;5053945;28;20053;-41
2022/02/17 09:43:50;;;;;;;7.47;1.98;;;9.60;63.50;;;;;;5053748;28;20523;-41
2022/02/17 09:46:21;;;;;;;6.00;1.33;;;9.60;63.20;;;;;;5053732;28;20099;-41
2022/02/17 09:48:50;;;;;;;6.63;1.70;;;9.60;62.80;;;;;;5052246;28;20033;-41
2022/02/17 09:51:16;;;;;;;6.70;2.00;;;9.60;63.00;;;;;;5053882;28;20017;-41
2022/02/17 09:53:42;;;;;;;12.75;2.47;;;9.60;63.70;;;;;;5053802;28;20437;-41
2022/02/17 09:56:09;;;;;;;6.95;1.73;;;9.70;61.90;;;;;;5052609;28;20055;-39
2022/02/17 09:58:35;;;;;;;10.50;2.13;;;9.70;62.50;;;;;;5053614;28;20096;-40
2022/02/17 10:01:00;;;;;;;10.30;1.90;;;9.70;61.70;;;;;;5053356;28;20111;-41
2022/02/17 10:03:29;;;;;;;8.35;1.92;;;9.70;60.50;;;;;;5053110;28;20029;-39
2022/02/17 10:06:05;;;;;;;8.48;1.92;;;9.70;60.50;;;;;;5053587;28;20027;-40
2022/02/17 10:08:31;;;;;;;13.15;2.08;;;9.70;61.60;;;;;;5053347;28;20369;-39
2022/02/17 10:10:57;;;;;;;5.88;1.52;;;9.80;62.00;;;;;;5053430;28;20017;-40
2022/02/17 10:13:23;;;;;;;6.10;1.67;;;9.90;62.30;;;;;;5053320;28;20021;-41
2022/02/17 10:15:53;;;;;;;8.73;1.77;;;10.00;62.70;;;;;;5052900;28;20017;-40
2022/02/17 10:18:21;;;;;;;7.68;1.88;;;10.10;62.30;;;;;;5053289;28;20526;-43
2022/02/17 10:20:59;;;;;;;10.35;1.67;;;10.20;60.90;;;;;;5052995;28;20534;-37
2022/02/17 10:23:30;;;;;;;6.97;1.55;;;10.30;61.20;;;;;;5053171;28;20040;-39
2022/02/17 10:26:02;;;;;;;10.00;2.08;;;10.30;61.40;;;;;;5053238;28;20036;-41
2022/02/17 10:28:28;;;;;;;10.80;1.92;;;10.40;59.80;;;;;;5052861;28;20057;-40
2022/02/17 10:30:56;;;;;;;6.43;1.85;;;10.30;60.50;;;;;;5053006;28;20017;-40
2022/02/17 10:33:22;;;;;;;7.45;1.60;;;10.30;60.90;;;;;;5053114;28;20381;-39
2022/02/17 10:35:58;;;;;;;8.38;2.03;;;10.30;59.80;;;;;;5052867;28;20025;-41
2022/02/17 10:38:23;;;;;;;8.65;1.60;;;10.30;60.00;;;;;;5053049;28;20096;-40
2022/02/17 10:40:52;;;;;;;9.50;2.28;;;10.30;60.50;;;;;;5052767;28;20102;-41
2022/02/17 10:43:18;;;;;;;9.35;2.00;;;10.30;60.40;;;;;;5052588;28;20167;-41
2022/02/17 10:45:46;;;;;;;10.13;2.05;;;10.30;59.70;;;;;;5052595;28;20108;-40
2022/02/17 10:48:32;;;;;;;6.93;1.80;;;10.20;60.30;;;;;;5052710;28;20488;-41
2022/02/17 10:51:10;;;;;;;9.63;1.92;;;10.30;61.10;;;;;;5052396;28;20033;-41
2022/02/17 10:53:58;;;;;;;9.07;1.70;;;10.30;59.20;;;;;;5052813;28;20028;-41
2022/02/17 10:56:24;;;;;;;7.35;2.38;;;10.30;58.60;;;;;;5052864;28;20531;-41
2022/02/17 10:58:50;;;;;;;8.55;2.17;;;10.30;58.50;;;;;;5052971;28;20056;-41
2022/02/17 11:01:19;;;;;;;8.18;1.58;;;10.30;58.30;;;;;;5052633;28;20024;-41
2022/02/17 11:03:47;;;;;;;11.30;2.33;;;10.40;59.00;;;;;;5052638;28;20029;-41
2022/02/17 11:06:14;;;;;;;7.95;1.63;;;10.40;59.30;;;;;;5052547;28;20037;-40
2022/02/17 11:08:42;;;;;;;5.10;1.30;;;10.40;59.30;;;;;;5056530;28;20033;-41
2022/02/17 11:11:09;;;;;;;7.97;1.73;;;10.40;59.60;;;;;;5056608;28;20546;-40
2022/02/17 11:13:35;;;;;;;8.57;1.90;;;10.50;59.60;;;;;;5056404;28;20545;-40
2022/02/17 11:16:03;;;;;;;5.38;1.67;;;10.60;58.70;;;;;;5056541;28;20059;-39
2022/02/17 11:18:29;;;;;;;6.80;1.92;;;10.60;58.80;;;;;;5056588;28;20508;-42
2022/02/17 11:20:56;;;;;;;8.38;1.80;;;10.60;59.00;;;;;;5056459;28;20032;-41
2022/02/17 11:23:28;;;;;;;5.00;1.60;;;10.60;57.70;;;;;;5056512;28;20452;-41
2022/02/17 11:25:54;;;;;;;7.15;1.60;;;10.60;58.40;;;;;;5056557;28;20029;-42
2022/02/17 11:28:36;;;;;;;5.57;1.63;;;10.60;58.60;;;;;;5056374;28;20481;-40
2022/02/17 11:31:05;;;;;;;5.20;1.40;;;10.60;58.10;;;;;;5056392;28;20020;-42
2022/02/17 11:33:55;;;;;;;7.93;1.60;;;10.70;57.80;;;;;;5056063;28;20082;-42
2022/02/17 11:36:22;;;;;;;8.45;1.83;;;10.70;58.40;;;;;;5053133;28;20053;-42
2022/02/17 11:38:50;;;;;;;6.65;1.60;;;10.80;57.60;;;;;;5056311;28;20078;-42
2022/02/17 11:41:18;;;;;;;5.80;1.45;;;10.80;58.10;;;;;;5056019;28;20104;-42
2022/02/17 11:43:46;;;;;;;6.25;1.60;;;10.80;58.60;;;;;;5055721;28;20045;-42
2022/02/17 11:46:16;;;;;;;6.57;1.42;;;10.90;58.40;;;;;;5056039;28;20029;-42
2022/02/17 11:48:51;;;;;;;5.78;1.88;;;10.90;58.00;;;;;;5055885;28;20412;-42
2022/02/17 11:51:19;;;;;;;5.80;1.73;;;10.90;57.40;;;;;;5056104;28;20018;-40
2022/02/17 11:54:14;;;;;;;9.57;1.88;;;10.90;57.40;;;;;;5055613;28;20028;-42
2022/02/17 11:56:44;;;;;;;10.52;1.80;;;10.90;57.30;;;;;;5056088;28;20489;-42
2022/02/17 11:59:28;;;;;;;9.68;1.80;;;10.90;57.70;;;;;;5055752;28;20397;-42
2022/02/17 12:01:56;;;;;;;10.63;2.70;;;10.90;57.00;;;;;;5055736;28;20115;-42
2022/02/17 12:04:29;;;;;;;9.50;1.80;;;10.90;56.20;;;;;;5055330;28;20036;-41
2022/02/17 12:06:56;;;;;;;6.05;1.10;;;10.90;57.10;;;;;;5055530;28;20366;-41
2022/02/17 12:09:41;;;;;;;6.32;1.70;;;11.00;58.10;;;;;;5055424;28;20033;-42
2022/02/17 12:12:06;;;;;;;10.38;1.70;;;11.10;58.50;;;;;;5055541;28;20493;-41
2022/02/17 12:14:32;;;;;;;8.98;1.60;;;11.20;58.10;;;;;;5053748;28;20048;-41
2022/02/17 12:17:02;;;;;;;6.35;1.70;;;11.20;58.30;;;;;;5055270;28;20017;-41
2022/02/17 12:19:35;;;;;;;9.90;2.00;;;11.20;57.30;;;;;;5052962;28;20477;-42
2022/02/17 12:22:09;;;;;;;8.38;1.63;;;11.20;57.20;;;;;;5055076;28;20032;-42
2022/02/17 12:24:45;;;;;;;7.50;2.00;;;11.20;57.30;;;;;;5054956;28;20044;-43
2022/02/17 12:27:12;;;;;;;5.82;1.70;;;11.20;57.20;;;;;;5055075;28;20050;-42
2022/02/17 12:29:42;;;;;;;9.13;2.17;;;11.10;57.40;;;;;;5054887;28;20028;-42
2022/02/17 12:32:15;;;;;;;6.45;1.77;;;11.00;57.40;;;;;;5053461;28;20493;-42
2022/02/17 12:34:42;;;;;;;10.05;1.80;;;10.90;58.00;;;;;;5054909;28;20036;-42
2022/02/17 12:37:18;;;;;;;7.65;1.52;;;11.00;58.20;;;;;;5055020;28;20021;-42
2022/02/17 12:39:51;;;;;;;5.88;1.80;;;10.90;57.90;;;;;;5054744;28;20036;-42
2022/02/17 12:42:18;;;;;;;7.82;1.40;;;10.90;57.40;;;;;;5053403;28;20025;-42
2022/02/17 12:44:46;;;;;;;9.18;1.75;;;11.00;57.40;;;;;;5054556;28;20083;-42
2022/02/17 12:47:12;;;;;;;8.77;1.73;;;11.00;57.70;;;;;;5054602;28;20032;-42